Metar-ilmailun säätiedot     EFOU Oulu Airport
Lämpötila
29°C Lämpötila
17°C Kastepiste
48% Kosteus



Tuuli
5 M/S
12 MPH
19 KM/H
10 KTS



160°
E-KA
Nykyiset olosuhteet

Area Kuuroja Area Kuuroja
Paine 1014.92 (hPa) - 29.97 (inHg)
Näkyvyys 6.2 (maili) - 10 (km)
Lentokenttä
Lentokentän koodi EFOU

Sijainti: Oulu Airport
Etäisyys:: 83 (km)

Metar:
EFOU 021320Z AUTO 16010KT 130V210 9999 VCSH //////CB 29/17 Q1015

Aika: 02-07-2022 16:20 EEST